Portada
METAR-TAF:

METAR-TAF

Aeroports :

Aeroport Internacional de Tan Son Nhat

Ciutat Ho Chi Minh, Vietnam

latitud: 10-49N, longitud: 106-40E, altitud: 19 m

Observació

L'informe es va fer fa 27 minuts, a les 01:30 UTC
Vent 4 kt del Sud/Sud-Oest, variant entre Sud-Est i Oest
Temperatura 31°C
Humitat 71%
Pressió 1011 hPa
Visibilitat 10 km o més
Núvols disperses a una alçada de 2000 ft

METAR: VVTS 180130Z 21004KT 140V270 9999 SCT020 31/25 Q1011 NOSIG

Hora: 08:57 (01:57 UTC)

Pronòstic

L'informe es va fer fa 2 hores i 57 minuts, a les 23:00 UTC
Pronòstic vàlid del 18 a les 00 UTC al 19 a les 06 UTC
Vent 10 kt del Sud
Visibilitat 10 km o més
Núvols disperses a una alçada de 1700 ft
Temporalment
l' 18 a les 07 UTC al 18 a les 13 UTC
Núvols disperses a una alçada de 1500 ft
Escasses núvols a una alçada de 1700 ft, Cumulonimbus.
tempesta,

TAF: VVTS 172300Z 1800/1906 17010KT 9999 SCT017 TEMPO 1807/1813 TS SCT015 FEW017CB

Observacions i pronòstics meteorològics de més de 4000 aeroports (METAR i TAF).

Les estacions disponibles són els punts grocs i vermells al mapa.

Posi el ratolí al punt desitjat per veure el nom de l'estació.

Feu clic per veure les observacions i els pronòstics meteorològics.

Per canviar el mapa: feu clic els botons verds amb una creu de color negre per apropar; al botó verd amb un guió per allunyar la imatge; o en les fletxes verdes per a mapes adjacents.


METAR-TAF: